Time;durP1;ratioP1;P1;durP2;ratioP2;P2;SDS_P1;SDS_P2;PMS_P1;PMS_P2;Temp;Humidity;BMP_temperature;BMP_pressure;BME280_temperature;BME280_humidity;BME280_pressure;Samples;Min_cycle;Max_cycle;Signal;HPM_P1;HPM_P2
2022/06/18 00:00:18;;;;;;;7.55;5.72;;;;;;;21.77;nan;-24421.88;4977735;28;20189;-61
2022/06/18 00:02:44;;;;;;;9.07;5.80;;;;;;;21.69;nan;-24419.78;4983304;28;20235;-62
2022/06/18 00:05:13;;;;;;;9.02;6.10;;;;;;;21.55;nan;-24415.91;4985875;28;20185;-61
2022/06/18 00:07:44;;;;;;;11.35;6.25;;;;;;;21.47;nan;-24413.69;4979108;28;20177;-60
2022/06/18 00:10:15;;;;;;;9.73;5.68;;;;;;;21.11;nan;-24404.00;4977235;28;20231;-60
2022/06/18 00:15:29;;;;;;;8.68;5.78;;;;;;;21.31;nan;-24409.28;4983286;28;20579;-63
2022/06/18 00:17:55;;;;;;;9.38;5.47;;;;;;;21.42;nan;-24412.47;4983485;28;20181;-61
2022/06/18 00:20:25;;;;;;;9.80;6.18;;;;;;;20.97;nan;-24399.97;4983902;28;20191;-63
2022/06/18 00:22:54;;;;;;;9.27;6.30;;;;;;;20.97;nan;-24400.13;4982967;28;20209;-61
2022/06/18 00:25:23;;;;;;;8.25;5.43;;;;;;;21.26;nan;-24407.88;4984130;28;20276;-62
2022/06/18 00:27:49;;;;;;;8.82;6.13;;;;;;;21.07;nan;-24402.88;4983220;28;20236;-61
2022/06/18 00:30:18;;;;;;;10.07;6.40;;;;;;;21.06;nan;-24402.59;4984531;28;20189;-62
2022/06/18 00:32:43;;;;;;;9.57;5.32;;;;;;;21.17;nan;-24405.38;4982539;28;20271;-62
2022/06/18 00:35:10;;;;;;;9.45;6.30;;;;;;;21.34;nan;-24410.25;4977199;28;20336;-63
2022/06/18 00:37:36;;;;;;;10.23;6.57;;;;;;;21.08;nan;-24403.16;4979932;28;20208;-62
2022/06/18 00:40:13;;;;;;;8.93;6.03;;;;;;;21.29;nan;-24408.72;4977945;28;20211;-64
2022/06/18 00:42:39;;;;;;;9.10;5.85;;;;;;;21.53;nan;-24415.38;4982911;28;20236;-61
2022/06/18 00:45:06;;;;;;;9.68;6.07;;;;;;;21.33;nan;-24409.81;4977219;28;20656;-60
2022/06/18 00:47:44;;;;;;;10.90;6.57;;;;;;;21.52;nan;-24415.22;4977308;28;20415;-61
2022/06/18 00:50:47;;;;;;;8.52;5.80;;;;;;;21.67;nan;-24419.25;4980576;28;20185;-64
2022/06/18 00:53:37;;;;;;;10.27;6.40;;;;;;;21.31;nan;-24409.41;4976812;28;20189;-61
2022/06/18 00:56:12;;;;;;;9.70;6.30;;;;;;;21.26;nan;-24407.88;4976888;28;20180;-63
2022/06/18 00:58:56;;;;;;;10.90;6.35;;;;;;;21.49;nan;-24414.41;4978699;28;20168;-63
2022/06/18 01:01:31;;;;;;;12.52;6.20;;;;;;;21.32;nan;-24409.69;4976900;28;20189;-62
2022/06/18 01:03:57;;;;;;;11.02;6.75;;;;;;;21.32;nan;-24409.53;4982950;28;20212;-62
2022/06/18 01:06:27;;;;;;;12.40;7.25;;;;;;;21.54;nan;-24415.66;4983527;28;20268;-61
2022/06/18 01:09:15;;;;;;;9.75;6.10;;;;;;;21.62;nan;-24417.72;4982996;28;20190;-61
2022/06/18 01:11:42;;;;;;;9.55;6.25;;;;;;;21.58;nan;-24416.75;4979123;28;20211;-63
2022/06/18 01:14:12;;;;;;;10.77;6.32;;;;;;;21.43;nan;-24412.59;4977437;28;20178;-62
2022/06/18 01:16:37;;;;;;;12.13;6.63;;;;;;;21.54;nan;-24415.66;4978916;28;20176;-60
2022/06/18 01:19:07;;;;;;;10.43;6.65;;;;;;;21.25;nan;-24407.75;4977635;28;20172;-63
2022/06/18 01:21:52;;;;;;;10.75;6.15;;;;;;;21.65;nan;-24418.69;4985244;28;20260;-61
2022/06/18 01:24:21;;;;;;;9.50;6.10;;;;;;;21.64;nan;-24418.28;4976696;28;20184;-62
2022/06/18 01:26:49;;;;;;;9.98;6.15;;;;;;;21.60;nan;-24417.31;4978311;28;20196;-61
2022/06/18 01:29:15;;;;;;;11.07;6.32;;;;;;;21.67;nan;-24419.25;4976501;28;20189;-60
2022/06/18 01:31:41;;;;;;;9.02;6.07;;;;;;;21.52;nan;-24415.09;4978958;28;20182;-62
2022/06/18 01:34:08;;;;;;;9.63;5.82;;;;;;;21.46;nan;-24413.44;4976876;28;20244;-62
2022/06/18 01:36:36;;;;;;;8.57;5.82;;;;;;;21.37;nan;-24410.94;4983475;28;20223;-63
2022/06/18 01:39:10;;;;;;;9.65;5.90;;;;;;;21.18;nan;-24405.66;4980737;28;20176;-60
2022/06/18 01:41:52;;;;;;;9.65;6.05;;;;;;;21.30;nan;-24409.00;4981212;28;20183;-62
2022/06/18 01:44:47;;;;;;;10.05;6.15;;;;;;;21.21;nan;-24406.50;4979781;28;20177;-61
2022/06/18 01:47:31;;;;;;;10.18;6.35;;;;;;;20.86;nan;-24396.91;4973718;28;20263;-63
2022/06/18 01:50:25;;;;;;;10.38;6.07;;;;;;;20.70;nan;-24392.63;4986172;28;20189;-62
2022/06/18 01:52:56;;;;;;;9.80;6.28;;;;;;;20.98;nan;-24400.38;4985627;28;20185;-62
2022/06/18 01:55:42;;;;;;;10.38;6.40;;;;;;;20.96;nan;-24399.84;4986746;28;20181;-61
2022/06/18 01:58:15;;;;;;;11.02;6.28;;;;;;;20.80;nan;-24395.41;4987111;28;20271;-62
2022/06/18 02:00:42;;;;;;;9.43;6.00;;;;;;;21.01;nan;-24401.22;4985051;28;20180;-64
2022/06/18 02:03:08;;;;;;;8.98;5.82;;;;;;;20.65;nan;-24391.22;4987532;28;20196;-62
2022/06/18 02:05:35;;;;;;;8.38;5.35;;;;;;;20.97;nan;-24400.13;4985241;28;20200;-64
2022/06/18 02:08:01;;;;;;;9.00;5.40;;;;;;;20.72;nan;-24393.31;4986180;28;20174;-64
2022/06/18 02:10:47;;;;;;;8.50;5.80;;;;;;;20.94;nan;-24399.28;4989378;28;20231;-62
2022/06/18 02:13:14;;;;;;;8.55;5.90;;;;;;;20.58;nan;-24389.44;4979683;28;20217;-61
2022/06/18 02:15:44;;;;;;;9.43;5.55;;;;;;;20.78;nan;-24394.84;4988448;28;20685;-63
2022/06/18 02:18:11;;;;;;;8.65;5.18;;;;;;;20.73;nan;-24393.59;4979475;28;20638;-63
2022/06/18 02:20:47;;;;;;;10.68;5.30;;;;;;;20.59;nan;-24389.56;4980507;28;20213;-62
2022/06/18 02:23:13;;;;;;;6.90;4.75;;;;;;;20.67;nan;-24391.78;4978607;28;20216;-61
2022/06/18 02:25:39;;;;;;;8.45;5.10;;;;;;;20.73;nan;-24393.59;4981039;28;20629;-60
2022/06/18 02:28:26;;;;;;;8.98;5.20;;;;;;;20.82;nan;-24395.94;4979845;28;20256;-61
2022/06/18 02:30:56;;;;;;;7.22;5.00;;;;;;;20.85;nan;-24396.78;4985220;28;20296;-62
2022/06/18 02:34:00;;;;;;;8.95;5.18;;;;;;;20.89;nan;-24397.75;4986395;28;20235;-62
2022/06/18 02:36:29;;;;;;;8.82;5.05;;;;;;;20.79;nan;-24395.13;4978826;28;20192;-60
2022/06/18 02:38:58;;;;;;;10.88;5.55;;;;;;;20.87;nan;-24397.19;4985241;28;20203;-61
2022/06/18 02:41:24;;;;;;;7.60;4.97;;;;;;;20.44;nan;-24385.41;4985676;28;20560;-64
2022/06/18 02:43:50;;;;;;;8.27;5.18;;;;;;;20.80;nan;-24395.25;4984542;28;20721;-62
2022/06/18 02:46:17;;;;;;;7.95;5.22;;;;;;;20.95;nan;-24399.56;4986513;28;20177;-62
2022/06/18 02:48:43;;;;;;;8.38;5.03;;;;;;;20.82;nan;-24395.81;4984611;28;20193;-62
2022/06/18 02:51:11;;;;;;;7.32;5.10;;;;;;;20.79;nan;-24394.97;4983452;28;20236;-60
2022/06/18 02:53:37;;;;;;;8.70;5.75;;;;;;;20.51;nan;-24387.34;4984568;28;20206;-60
2022/06/18 02:56:05;;;;;;;8.52;5.35;;;;;;;20.32;nan;-24382.06;4986086;28;20260;-63
2022/06/18 02:58:35;;;;;;;9.73;5.35;;;;;;;20.67;nan;-24391.94;4984980;28;20187;-62
2022/06/18 03:01:07;;;;;;;10.63;5.40;;;;;;;20.66;nan;-24391.66;4985808;28;20181;-62
2022/06/18 03:03:40;;;;;;;8.40;5.25;;;;;;;20.52;nan;-24387.75;4984419;28;20679;-60
2022/06/18 03:06:08;;;;;;;8.65;5.28;;;;;;;20.23;nan;-24379.84;4983111;28;20186;-60
2022/06/18 03:08:35;;;;;;;10.48;5.10;;;;;;;20.27;nan;-24380.81;4979123;28;20279;-63
2022/06/18 03:13:46;;;;;;;9.07;5.50;;;;;;;20.27;nan;-24380.81;4980381;28;20192;-60
2022/06/18 03:16:14;;;;;;;8.02;5.15;;;;;;;20.25;nan;-24380.41;4978401;28;20181;-60
2022/06/18 03:18:41;;;;;;;11.48;5.10;;;;;;;20.29;nan;-24381.38;4980461;28;20177;-60
2022/06/18 03:21:41;;;;;;;9.60;5.32;;;;;;;21.10;nan;-24403.72;4978678;28;20177;-61
2022/06/18 03:24:08;;;;;;;8.00;5.18;;;;;;;21.28;nan;-24408.56;4949952;28;20241;-61
2022/06/18 03:26:35;;;;;;;6.88;5.03;;;;;;;20.95;nan;-24399.41;4978972;28;20188;-60
2022/06/18 03:29:01;;;;;;;8.43;5.60;;;;;;;20.95;nan;-24399.56;4979475;28;20589;-61
2022/06/18 03:31:27;;;;;;;9.23;5.95;;;;;;;20.95;nan;-24399.41;4978358;28;20181;-60
2022/06/18 03:33:52;;;;;;;8.80;5.95;;;;;;;21.13;nan;-24404.41;4979705;28;20192;-63
2022/06/18 03:36:19;;;;;;;7.40;5.07;;;;;;;21.42;nan;-24412.31;4978145;28;20204;-62
2022/06/18 03:38:45;;;;;;;10.32;5.88;;;;;;;21.49;nan;-24414.25;4980420;28;20204;-64
2022/06/18 03:41:12;;;;;;;11.18;5.65;;;;;;;21.52;nan;-24415.09;4978040;28;20625;-60
2022/06/18 03:43:37;;;;;;;9.00;6.13;;;;;;;21.30;nan;-24409.00;4979409;28;20196;-59
2022/06/18 03:46:07;;;;;;;9.45;5.80;;;;;;;22.18;nan;-24433.09;4978574;28;20204;-63
2022/06/18 03:48:50;;;;;;;8.20;5.40;;;;;;;23.70;nan;-24474.84;4978519;28;20276;-63
2022/06/18 03:51:17;;;;;;;8.90;6.05;;;;;;;25.24;nan;-24516.75;4977714;28;20672;-61
2022/06/18 03:53:43;;;;;;;7.70;5.07;;;;;;;26.33;nan;-24546.31;4983081;28;20575;-60
2022/06/18 03:56:12;;;;;;;7.97;5.20;;;;;;;26.41;nan;-24548.38;4977796;28;20204;-63
2022/06/18 03:58:38;;;;;;;8.43;5.55;;;;;;;25.91;nan;-24534.91;4978653;28;20227;-60
2022/06/18 04:01:04;;;;;;;9.13;5.65;;;;;;;26.37;nan;-24547.41;4979039;28;20709;-62
2022/06/18 04:03:29;;;;;;;10.60;5.63;;;;;;;26.59;nan;-24553.44;4983941;28;20216;-59
2022/06/18 04:05:55;;;;;;;8.25;5.22;;;;;;;28.17;nan;-24596.09;4983867;28;20621;-61
2022/06/18 04:08:20;;;;;;;8.25;5.35;;;;;;;29.09;nan;-24620.97;4984583;28;20176;-65
2022/06/18 04:10:47;;;;;;;6.90;5.47;;;;;;;29.83;nan;-24641.19;4983470;28;20283;-61
2022/06/18 04:13:14;;;;;;;8.15;5.32;;;;;;;31.03;nan;-24673.34;4985166;28;20572;-62
2022/06/18 04:15:39;;;;;;;9.55;5.70;;;;;;;31.40;nan;-24683.28;4978820;28;20711;-65
2022/06/18 04:18:05;;;;;;;5.50;4.10;;;;;;;30.75;nan;-24665.84;4976619;28;20217;-63
2022/06/18 04:20:34;;;;;;;6.32;4.40;;;;;;;30.16;nan;-24650.03;4977572;28;20719;-64
2022/06/18 04:22:59;;;;;;;6.10;4.25;;;;;;;29.63;nan;-24635.59;4984390;28;20217;-64
2022/06/18 04:25:25;;;;;;;5.63;4.30;;;;;;;28.55;nan;-24606.47;4979600;28;20253;-61
2022/06/18 04:27:51;;;;;;;5.88;4.43;;;;;;;29.24;nan;-24625.06;4980440;28;20185;-62
2022/06/18 04:30:18;;;;;;;6.75;4.68;;;;;;;28.45;nan;-24603.88;4976942;28;20231;-61
2022/06/18 04:32:44;;;;;;;6.63;4.68;;;;;;;29.32;nan;-24627.25;4979262;28;20272;-65
2022/06/18 04:35:12;;;;;;;6.30;4.47;;;;;;;30.64;nan;-24663.00;4977289;28;20181;-61
2022/06/18 04:37:38;;;;;;;6.97;4.38;;;;;;;29.64;nan;-24635.84;4983160;28;20204;-64
2022/06/18 04:40:05;;;;;;;5.93;4.68;;;;;;;28.25;nan;-24598.41;4984508;28;20193;-63
2022/06/18 04:42:30;;;;;;;8.77;5.22;;;;;;;27.45;nan;-24576.63;4978915;28;20192;-61
2022/06/18 04:44:56;;;;;;;7.03;5.20;;;;;;;26.66;nan;-24555.22;4981565;28;20228;-62
2022/06/18 04:47:22;;;;;;;6.80;4.72;;;;;;;25.51;nan;-24524.03;4984012;28;20196;-64
2022/06/18 04:49:47;;;;;;;7.30;5.05;;;;;;;25.43;nan;-24521.97;4982947;28;20223;-63
2022/06/18 04:52:13;;;;;;;6.82;5.13;;;;;;;25.48;nan;-24523.22;4980546;28;20208;-60
2022/06/18 04:54:39;;;;;;;7.45;4.95;;;;;;;24.96;nan;-24509.03;4983095;28;20268;-62
2022/06/18 04:57:06;;;;;;;6.95;4.72;;;;;;;24.72;nan;-24502.56;4979068;28;20630;-64
2022/06/18 04:59:31;;;;;;;7.20;5.28;;;;;;;24.72;nan;-24502.56;4977129;28;20669;-60
2022/06/18 05:02:05;;;;;;;9.40;5.18;;;;;;;24.11;nan;-24485.88;4978451;28;20257;-63
2022/06/18 05:04:31;;;;;;;8.02;5.50;;;;;;;24.08;nan;-24485.06;4977137;28;20276;-64
2022/06/18 05:06:56;;;;;;;7.45;5.32;;;;;;;23.78;nan;-24476.91;4978561;28;20272;-65
2022/06/18 05:09:22;;;;;;;7.72;5.60;;;;;;;24.31;nan;-24491.41;4976992;28;20189;-58
2022/06/18 05:11:47;;;;;;;8.35;5.20;;;;;;;24.20;nan;-24488.38;4981835;28;20196;-62
2022/06/18 05:14:14;;;;;;;8.63;5.68;;;;;;;24.08;nan;-24485.06;4980503;28;20657;-62
2022/06/18 05:16:40;;;;;;;7.53;5.10;;;;;;;24.05;nan;-24484.22;4982917;28;20196;-62
2022/06/18 05:19:06;;;;;;;8.48;5.70;;;;;;;23.53;nan;-24470.16;4990084;28;20696;-64
2022/06/18 05:21:31;;;;;;;6.30;4.95;;;;;;;24.31;nan;-24491.25;4982989;28;20193;-66
2022/06/18 05:23:57;;;;;;;8.75;5.35;;;;;;;24.14;nan;-24486.69;4990866;28;20276;-64
2022/06/18 05:26:22;;;;;;;9.05;5.80;;;;;;;24.53;nan;-24497.47;4980257;28;20197;-64
2022/06/18 05:28:48;;;;;;;7.90;5.50;;;;;;;24.80;nan;-24504.75;4982229;28;20672;-64
2022/06/18 05:31:13;;;;;;;7.35;5.60;;;;;;;24.36;nan;-24492.78;4979863;28;20211;-64
2022/06/18 05:33:39;;;;;;;8.02;5.03;;;;;;;24.45;nan;-24495.25;4982043;28;20575;-65
2022/06/18 05:36:05;;;;;;;8.38;5.82;;;;;;;25.05;nan;-24511.50;4980563;28;20220;-64
2022/06/18 05:38:31;;;;;;;8.20;5.22;;;;;;;24.95;nan;-24508.91;4986017;28;20271;-63
2022/06/18 05:40:56;;;;;;;8.52;5.78;;;;;;;25.40;nan;-24521.00;4983787;28;20323;-65
2022/06/18 05:43:22;;;;;;;8.73;5.57;;;;;;;24.77;nan;-24503.94;4979889;28;20228;-63
2022/06/18 05:45:48;;;;;;;8.57;5.97;;;;;;;25.20;nan;-24515.50;4981980;28;20219;-63
2022/06/18 05:48:13;;;;;;;8.40;5.50;;;;;;;25.40;nan;-24521.00;4979451;28;20186;-64
2022/06/18 05:50:39;;;;;;;9.05;5.85;;;;;;;25.69;nan;-24528.84;4981853;28;20274;-63
2022/06/18 05:53:05;;;;;;;8.43;5.68;;;;;;;26.15;nan;-24541.50;4979980;28;20181;-65
2022/06/18 05:55:30;;;;;;;7.70;5.35;;;;;;;25.59;nan;-24526.25;4980137;28;20656;-62
2022/06/18 05:57:58;;;;;;;8.48;5.95;;;;;;;25.70;nan;-24529.13;4981239;28;20266;-63
2022/06/18 06:00:27;;;;;;;6.85;5.25;;;;;;;25.97;nan;-24536.56;4981502;28;20560;-67
2022/06/18 06:02:53;;;;;;;8.40;5.20;;;;;;;25.86;nan;-24533.66;4985235;28;20235;-65
2022/06/18 06:05:18;;;;;;;7.53;4.78;;;;;;;25.07;nan;-24512.06;4985521;28;20185;-62
2022/06/18 06:07:44;;;;;;;6.85;4.97;;;;;;;25.28;nan;-24517.84;4982640;28;20264;-64
2022/06/18 06:13:17;;;;;;;8.02;5.18;;;;;;;26.02;nan;-24537.78;4984552;28;20616;-64
2022/06/18 06:15:42;;;;;;;7.38;5.32;;;;;;;25.73;nan;-24529.94;4983971;28;20216;-65
2022/06/18 06:18:12;;;;;;;6.78;4.45;;;;;;;26.00;nan;-24537.38;4978328;28;20624;-62
2022/06/18 06:20:40;;;;;;;7.88;5.53;;;;;;;25.80;nan;-24531.88;4982786;28;20199;-65
2022/06/18 06:23:07;;;;;;;6.68;5.05;;;;;;;25.67;nan;-24528.31;4980966;28;20204;-64
2022/06/18 06:25:33;;;;;;;9.02;5.50;;;;;;;25.54;nan;-24524.88;4983388;28;21114;-65
2022/06/18 06:27:59;;;;;;;8.52;5.57;;;;;;;25.87;nan;-24533.94;4984841;28;20660;-63
2022/06/18 06:30:25;;;;;;;6.63;4.63;;;;;;;25.94;nan;-24535.88;4979094;28;20588;-66
2022/06/18 06:32:50;;;;;;;7.32;5.03;;;;;;;26.03;nan;-24538.19;4981510;28;20176;-63
2022/06/18 06:35:16;;;;;;;6.13;4.55;;;;;;;26.29;nan;-24545.22;4978966;28;20191;-65
2022/06/18 06:37:42;;;;;;;6.20;4.55;;;;;;;26.54;nan;-24552.06;4981982;28;20182;-62
2022/06/18 06:40:09;;;;;;;7.53;4.05;;;;;;;26.18;nan;-24542.19;4979500;28;20601;-63
2022/06/18 06:42:47;;;;;;;6.00;4.65;;;;;;;26.74;nan;-24557.44;4985819;28;20193;-63
2022/06/18 06:45:19;;;;;;;6.05;4.60;;;;;;;26.33;nan;-24546.44;4978337;28;20192;-61
2022/06/18 06:47:45;;;;;;;5.78;4.22;;;;;;;26.01;nan;-24537.66;4984605;28;20172;-64
2022/06/18 06:50:12;;;;;;;4.90;3.90;;;;;;;26.16;nan;-24541.78;4986002;28;20185;-66
2022/06/18 06:52:38;;;;;;;5.90;4.45;;;;;;;25.85;nan;-24533.38;4980431;28;20231;-61
2022/06/18 06:57:50;;;;;;;5.85;4.43;;;;;;;26.16;nan;-24541.63;4980821;28;20235;-61
2022/06/18 07:00:16;;;;;;;5.45;4.07;;;;;;;26.57;nan;-24552.91;4978266;28;20184;-62
2022/06/18 07:02:43;;;;;;;7.47;4.70;;;;;;;26.70;nan;-24556.47;4980759;28;20240;-64
2022/06/18 07:05:12;;;;;;;7.15;4.75;;;;;;;26.49;nan;-24550.56;4978774;28;20177;-63
2022/06/18 07:07:37;;;;;;;5.53;4.32;;;;;;;26.71;nan;-24556.59;4989260;28;20184;-62
2022/06/18 07:10:03;;;;;;;6.05;4.13;;;;;;;26.82;nan;-24559.75;4978878;28;20228;-61
2022/06/18 07:12:28;;;;;;;7.38;4.25;;;;;;;26.66;nan;-24555.22;4978203;28;20194;-65
2022/06/18 07:14:54;;;;;;;6.43;4.18;;;;;;;26.67;nan;-24555.66;4979914;28;20728;-66
2022/06/18 07:17:19;;;;;;;5.82;4.15;;;;;;;27.41;nan;-24575.66;4979231;28;20664;-67
2022/06/18 07:19:45;;;;;;;6.65;4.70;;;;;;;27.88;nan;-24588.41;4978592;28;20216;-64
2022/06/18 07:22:10;;;;;;;5.75;3.90;;;;;;;27.78;nan;-24585.69;4985417;28;20722;-63
2022/06/18 07:24:37;;;;;;;6.90;4.60;;;;;;;27.86;nan;-24587.72;4983586;28;20683;-65
2022/06/18 07:27:04;;;;;;;5.90;3.95;;;;;;;27.72;nan;-24584.03;4982565;28;20625;-65
2022/06/18 07:29:30;;;;;;;6.63;4.53;;;;;;;27.05;nan;-24565.94;4984177;28;20572;-65
2022/06/18 07:32:04;;;;;;;5.80;4.00;;;;;;;26.38;nan;-24547.81;4983344;28;20185;-62
2022/06/18 07:34:30;;;;;;;6.18;4.50;;;;;;;26.80;nan;-24559.06;4983088;28;20187;-64
2022/06/18 07:36:55;;;;;;;6.32;4.25;;;;;;;26.70;nan;-24556.47;4981241;28;20177;-62
2022/06/18 07:39:21;;;;;;;7.15;4.47;;;;;;;26.62;nan;-24554.13;4978214;28;20564;-65
2022/06/18 07:41:52;;;;;;;6.68;4.50;;;;;;;25.75;nan;-24530.66;4979919;28;20260;-66
2022/06/18 07:44:18;;;;;;;5.70;4.43;;;;;;;26.17;nan;-24541.91;4978225;28;20185;-65
2022/06/18 07:46:45;;;;;;;6.40;4.70;;;;;;;26.47;nan;-24550.00;4982252;28;20612;-61
2022/06/18 07:49:11;;;;;;;6.03;4.45;;;;;;;26.61;nan;-24553.84;4985374;28;20204;-62
2022/06/18 07:51:37;;;;;;;6.43;4.50;;;;;;;27.08;nan;-24566.75;4981710;28;20259;-65
2022/06/18 07:54:03;;;;;;;6.75;4.63;;;;;;;26.85;nan;-24560.44;4977587;28;20204;-65
2022/06/18 07:56:28;;;;;;;6.47;4.22;;;;;;;27.01;nan;-24564.69;4977562;28;20185;-65
2022/06/18 07:58:54;;;;;;;7.13;4.20;;;;;;;27.55;nan;-24579.38;4979746;28;20184;-66
2022/06/18 08:01:19;;;;;;;5.55;4.05;;;;;;;27.75;nan;-24584.84;4977876;28;20247;-64
2022/06/18 08:03:45;;;;;;;6.45;4.40;;;;;;;28.01;nan;-24591.84;4979509;28;20209;-64
2022/06/18 08:06:10;;;;;;;6.28;4.57;;;;;;;28.26;nan;-24598.69;4977228;28;20220;-64
2022/06/18 08:08:36;;;;;;;6.35;4.30;;;;;;;28.46;nan;-24604.16;4978600;28;20180;-65
2022/06/18 08:11:04;;;;;;;6.13;4.50;;;;;;;28.28;nan;-24599.09;4980660;28;20227;-62
2022/06/18 08:13:29;;;;;;;7.07;4.70;;;;;;;28.88;nan;-24615.50;4977681;28;20185;-65
2022/06/18 08:15:55;;;;;;;7.55;5.65;;;;;;;28.54;nan;-24606.34;4978994;28;20176;-64
2022/06/18 08:18:20;;;;;;;6.10;4.53;;;;;;;28.59;nan;-24607.56;4977191;28;20657;-63
2022/06/18 08:20:46;;;;;;;6.03;4.32;;;;;;;29.15;nan;-24622.59;4979683;28;20217;-64
2022/06/18 08:23:11;;;;;;;5.85;3.85;;;;;;;29.29;nan;-24626.56;4984736;28;20230;-65
2022/06/18 08:25:40;;;;;;;6.68;4.72;;;;;;;29.58;nan;-24634.34;4981148;28;20192;-63
2022/06/18 08:28:08;;;;;;;5.72;4.25;;;;;;;29.72;nan;-24638.03;4985050;28;20176;-63
2022/06/18 08:30:34;;;;;;;7.90;4.35;;;;;;;30.32;nan;-24654.13;4976884;28;20627;-62
2022/06/18 08:33:00;;;;;;;6.32;4.53;;;;;;;30.27;nan;-24652.91;4978649;28;20270;-64
2022/06/18 08:35:27;;;;;;;7.80;4.97;;;;;;;30.04;nan;-24646.63;4979054;28;20275;-62
2022/06/18 08:37:53;;;;;;;6.43;4.93;;;;;;;29.83;nan;-24641.03;4982621;28;20752;-63
2022/06/18 08:40:54;;;;;;;7.88;4.45;;;;;;;29.56;nan;-24633.81;4977295;28;20569;-64
2022/06/18 08:43:29;;;;;;;6.82;4.35;;;;;;;28.74;nan;-24611.53;4980243;28;20323;-65
2022/06/18 08:46:11;;;;;;;7.05;4.47;;;;;;;28.71;nan;-24610.72;4983346;28;20241;-63
2022/06/18 08:49:02;;;;;;;7.65;4.25;;;;;;;28.05;nan;-24592.94;4991860;28;20192;-63
2022/06/18 08:51:49;;;;;;;6.65;4.70;;;;;;;28.05;nan;-24593.06;4983406;28;20193;-63
2022/06/18 08:54:21;;;;;;;6.43;4.78;;;;;;;27.40;nan;-24575.41;4982827;28;20250;-63
2022/06/18 08:57:27;;;;;;;9.90;5.53;;;;;;;27.86;nan;-24587.72;4985277;28;20196;-64
2022/06/18 09:00:16;;;;;;;5.97;4.50;;;;;;;27.77;nan;-24585.25;4988678;28;20571;-63
2022/06/18 09:03:00;;;;;;;6.07;4.57;;;;;;;27.95;nan;-24590.19;4986059;28;20695;-62
2022/06/18 09:05:50;;;;;;;6.53;4.53;;;;;;;27.87;nan;-24588.13;4984331;28;20248;-65
2022/06/18 09:08:33;;;;;;;6.40;4.60;;;;;;;27.71;nan;-24583.63;4988987;28;20184;-64
2022/06/18 09:11:01;;;;;;;6.57;4.60;;;;;;;27.70;nan;-24583.47;4988104;28;20280;-62
2022/06/18 09:13:39;;;;;;;6.07;4.40;;;;;;;27.18;nan;-24569.38;4991066;28;20215;-65
2022/06/18 09:16:08;;;;;;;6.00;4.40;;;;;;;27.86;nan;-24587.72;4987816;28;20275;-62
2022/06/18 09:18:43;;;;;;;7.30;5.00;;;;;;;28.07;nan;-24593.63;4985646;28;20197;-64
2022/06/18 09:21:13;;;;;;;9.82;5.28;;;;;;;27.80;nan;-24586.22;4991325;28;20305;-65
2022/06/18 09:23:49;;;;;;;7.10;5.40;;;;;;;27.50;nan;-24578.00;4989713;28;20200;-63
2022/06/18 09:26:21;;;;;;;7.05;4.82;;;;;;;27.82;nan;-24586.78;4985802;28;20220;-65
2022/06/18 09:28:57;;;;;;;6.18;4.68;;;;;;;27.87;nan;-24588.00;4994313;28;20173;-62
2022/06/18 09:31:38;;;;;;;7.07;5.25;;;;;;;27.78;nan;-24585.53;4982878;28;20242;-63
2022/06/18 09:34:19;;;;;;;9.05;5.20;;;;;;;28.30;nan;-24599.78;4985191;28;20264;-65
2022/06/18 09:36:51;;;;;;;7.45;5.10;;;;;;;27.96;nan;-24590.59;4986079;28;20621;-66
2022/06/18 09:39:20;;;;;;;6.22;4.90;;;;;;;28.03;nan;-24592.38;4990593;28;20188;-64
2022/06/18 09:42:00;;;;;;;6.45;4.82;;;;;;;27.87;nan;-24588.00;4982491;28;20181;-63
2022/06/18 09:44:35;;;;;;;6.95;4.63;;;;;;;27.80;nan;-24586.09;4988509;28;20266;-62
2022/06/18 09:47:00;;;;;;;7.10;4.97;;;;;;;27.65;nan;-24582.13;4987903;28;20183;-65
2022/06/18 09:49:27;;;;;;;7.88;5.05;;;;;;;27.14;nan;-24568.41;4993000;28;20184;-64
2022/06/18 09:52:14;;;;;;;7.13;4.90;;;;;;;27.54;nan;-24579.09;4984661;28;20723;-64
2022/06/18 09:54:48;;;;;;;6.10;4.45;;;;;;;27.48;nan;-24577.59;4990945;28;20181;-62
2022/06/18 09:57:17;;;;;;;7.75;5.20;;;;;;;26.21;nan;-24543.00;4986328;28;20188;-63
2022/06/18 09:59:51;;;;;;;7.00;3.92;;;;;;;25.43;nan;-24521.97;4982552;28;20209;-63
2022/06/18 10:02:26;;;;;;;5.20;3.83;;;;;;;24.46;nan;-24495.41;4983837;28;20261;-64
2022/06/18 10:07:41;;;;;;;4.78;3.15;;;;;;;23.90;nan;-24480.09;4985998;28;20220;-62
2022/06/18 10:10:07;;;;;;;3.50;2.80;;;;;;;23.94;nan;-24481.31;4985713;28;20220;-66
2022/06/18 10:12:36;;;;;;;4.75;2.97;;;;;;;23.23;nan;-24461.84;4986406;28;20722;-62
2022/06/18 10:15:08;;;;;;;3.67;2.70;;;;;;;23.48;nan;-24468.78;4983304;28;20704;-65
2022/06/18 10:18:02;;;;;;;3.40;2.13;;;;;;;23.62;nan;-24472.63;4979538;28;20653;-62
2022/06/18 10:20:46;;;;;;;4.07;3.00;;;;;;;23.24;nan;-24462.13;4985891;28;20652;-63
2022/06/18 10:23:37;;;;;;;6.25;3.10;;;;;;;22.97;nan;-24454.66;4984716;28;20211;-63
2022/06/18 10:26:11;;;;;;;5.00;3.58;;;;;;;22.82;nan;-24450.66;4986509;28;20185;-64
2022/06/18 10:28:45;;;;;;;5.68;3.47;;;;;;;22.63;nan;-24445.53;4985719;28;20204;-61
2022/06/18 10:31:35;;;;;;;6.60;3.83;;;;;;;22.76;nan;-24449.16;4979257;28;20184;-63
2022/06/18 10:34:19;;;;;;;7.35;4.15;;;;;;;22.26;nan;-24435.31;4986276;28;20236;-62
2022/06/18 10:37:14;;;;;;;6.75;4.10;;;;;;;22.67;nan;-24446.66;4984509;28;20248;-64
2022/06/18 10:40:00;;;;;;;5.60;3.65;;;;;;;23.15;nan;-24459.78;4985073;28;20199;-62
2022/06/18 10:42:51;;;;;;;4.80;3.70;;;;;;;23.04;nan;-24456.75;4978942;28;20197;-63
2022/06/18 10:45:20;;;;;;;4.53;3.58;;;;;;;22.81;nan;-24450.53;4984572;28;20192;-61
2022/06/18 10:47:48;;;;;;;6.07;4.07;;;;;;;22.34;nan;-24437.66;4980855;28;20180;-61
2022/06/18 10:50:17;;;;;;;8.20;3.55;;;;;;;22.61;nan;-24444.84;4980591;28;20197;-64
2022/06/18 10:52:44;;;;;;;5.20;3.47;;;;;;;21.90;nan;-24425.47;4982496;28;20260;-66
2022/06/18 10:55:18;;;;;;;5.28;3.30;;;;;;;22.02;nan;-24428.94;4986269;28;20188;-64
2022/06/18 10:57:45;;;;;;;4.13;3.10;;;;;;;21.98;nan;-24427.84;4978072;28;20181;-65
2022/06/18 11:00:18;;;;;;;4.80;3.55;;;;;;;22.19;nan;-24433.38;4978529;28;20566;-62
2022/06/18 11:02:45;;;;;;;5.20;3.63;;;;;;;22.01;nan;-24428.66;4983774;28;20213;-62
2022/06/18 11:05:20;;;;;;;7.28;3.90;;;;;;;21.68;nan;-24419.53;4985491;28;20223;-64
2022/06/18 11:07:49;;;;;;;5.50;3.63;;;;;;;21.88;nan;-24424.91;4978280;28;20652;-63
2022/06/18 11:10:21;;;;;;;6.38;3.83;;;;;;;21.70;nan;-24420.06;4985281;28;20225;-62
2022/06/18 11:12:53;;;;;;;5.75;4.22;;;;;;;21.42;nan;-24412.47;4979632;28;20181;-63
2022/06/18 11:15:27;;;;;;;6.22;3.83;;;;;;;21.58;nan;-24416.75;4985483;28;20220;-63
2022/06/18 11:17:53;;;;;;;7.68;3.63;;;;;;;21.09;nan;-24403.31;4980160;28;20264;-64
2022/06/18 11:20:27;;;;;;;5.75;3.72;;;;;;;21.13;nan;-24404.41;4978121;28;20288;-62
2022/06/18 11:22:59;;;;;;;6.43;3.88;;;;;;;21.11;nan;-24404.00;4984040;28;20204;-60
2022/06/18 11:25:24;;;;;;;5.85;3.95;;;;;;;21.45;nan;-24413.28;4985295;28;20287;-62
2022/06/18 11:27:52;;;;;;;6.68;4.38;;;;;;;21.25;nan;-24407.59;4980632;28;20640;-63
2022/06/18 11:30:33;;;;;;;7.95;4.78;;;;;;;21.62;nan;-24417.84;4981485;28;20661;-62
2022/06/18 11:33:01;;;;;;;10.77;5.35;;;;;;;21.46;nan;-24413.56;4981198;28;20259;-63
2022/06/18 11:35:32;;;;;;;7.70;4.50;;;;;;;21.38;nan;-24411.34;4978864;28;20186;-63
2022/06/18 11:37:57;;;;;;;7.05;4.25;;;;;;;21.49;nan;-24414.25;4983998;28;20583;-64
2022/06/18 11:40:23;;;;;;;8.02;4.65;;;;;;;21.09;nan;-24403.44;4984514;28;20216;-57
2022/06/18 11:42:58;;;;;;;7.15;4.22;;;;;;;21.28;nan;-24408.56;4983090;28;20201;-49
2022/06/18 11:45:34;;;;;;;6.93;4.32;;;;;;;21.49;nan;-24414.41;4980427;28;20216;-49
2022/06/18 11:48:12;;;;;;;5.47;4.05;;;;;;;21.70;nan;-24420.06;4984109;28;20193;-48
2022/06/18 11:50:44;;;;;;;6.57;4.63;;;;;;;21.59;nan;-24417.16;4983206;28;20255;-59
2022/06/18 11:53:17;;;;;;;6.72;4.25;;;;;;;22.06;nan;-24429.78;4977240;28;20244;-60
2022/06/18 11:55:46;;;;;;;7.25;3.97;;;;;;;21.88;nan;-24424.91;4981335;28;20188;-60
2022/06/18 11:58:30;;;;;;;5.75;3.67;;;;;;;22.31;nan;-24436.69;4981967;28;20229;-59
2022/06/18 12:01:03;;;;;;;6.80;3.88;;;;;;;22.60;nan;-24444.56;4977028;28;20172;-58
2022/06/18 12:03:38;;;;;;;6.93;4.05;;;;;;;22.97;nan;-24454.66;4980605;28;20240;-60
2022/06/18 12:06:14;;;;;;;5.75;3.92;;;;;;;23.61;nan;-24472.34;4989049;28;20865;-60
2022/06/18 12:08:40;;;;;;;6.47;3.38;;;;;;;23.89;nan;-24479.81;4984878;28;20220;-63
2022/06/18 12:11:23;;;;;;;5.20;3.78;;;;;;;24.85;nan;-24506.13;4978342;28;20650;-59